createdAt,value
2019-02-14T00:00:10.286Z,99.60
2019-02-14T00:02:38.817Z,99.70
2019-02-14T00:05:15.877Z,99.70
2019-02-14T00:07:37.454Z,99.70
2019-02-14T00:10:08.678Z,99.60
2019-02-14T00:12:37.116Z,99.60
2019-02-14T00:15:13.290Z,99.60
2019-02-14T00:17:41.739Z,99.60
2019-02-14T00:20:10.568Z,99.60
2019-02-14T00:22:39.086Z,99.50
2019-02-14T00:25:07.692Z,99.60
2019-02-14T00:27:36.203Z,99.90
2019-02-14T00:30:06.508Z,99.80
2019-02-14T00:32:35.045Z,99.90
2019-02-14T00:35:03.699Z,99.80
2019-02-14T00:37:32.154Z,99.90
2019-02-14T00:40:00.628Z,99.90
2019-02-14T00:42:29.178Z,99.90
2019-02-14T00:44:57.703Z,99.90
2019-02-14T00:47:26.113Z,99.90
2019-02-14T00:49:54.575Z,99.90
2019-02-14T00:52:23.092Z,99.90
2019-02-14T00:54:51.550Z,99.90
2019-02-14T00:57:20.164Z,99.90
2019-02-14T00:59:48.702Z,99.90
2019-02-14T01:02:17.230Z,99.90
2019-02-14T01:04:45.673Z,99.90
2019-02-14T01:07:14.178Z,99.90
2019-02-14T01:09:42.737Z,99.90
2019-02-14T01:12:11.547Z,99.90
2019-02-14T01:14:40.117Z,99.90
2019-02-14T01:17:08.714Z,99.80
2019-02-14T01:19:37.277Z,99.80
2019-02-14T01:22:05.987Z,99.80
2019-02-14T01:24:34.426Z,99.80
2019-02-14T01:27:02.915Z,99.70
2019-02-14T01:29:31.433Z,99.50
2019-02-14T01:31:59.950Z,99.60
2019-02-14T01:34:28.470Z,99.00
2019-02-14T01:36:57.080Z,98.90
2019-02-14T01:39:25.518Z,98.70
2019-02-14T01:41:54.033Z,98.30
2019-02-14T01:44:22.616Z,98.20
2019-02-14T01:46:51.105Z,97.90
2019-02-14T01:49:19.538Z,97.80
2019-02-14T01:51:48.039Z,97.60
2019-02-14T01:54:16.535Z,97.60
2019-02-14T01:56:45.039Z,97.40
2019-02-14T01:59:13.628Z,97.30
2019-02-14T02:01:42.120Z,97.30
2019-02-14T02:04:10.580Z,97.30
2019-02-14T02:06:39.177Z,97.40
2019-02-14T02:09:07.683Z,97.50
2019-02-14T02:11:36.136Z,97.50
2019-02-14T02:14:04.933Z,97.60
2019-02-14T02:16:33.484Z,97.80
2019-02-14T02:19:01.951Z,97.60
2019-02-14T02:21:30.487Z,97.40
2019-02-14T02:23:59.078Z,97.40
2019-02-14T02:26:27.611Z,97.30
2019-02-14T02:28:56.132Z,97.30
2019-02-14T02:31:24.578Z,97.00
2019-02-14T02:33:53.059Z,97.00
2019-02-14T02:36:21.623Z,96.80
2019-02-14T02:38:50.082Z,96.80
2019-02-14T02:41:18.513Z,96.40
2019-02-14T02:43:47.014Z,96.30
2019-02-14T02:46:15.489Z,96.10
2019-02-14T02:48:43.962Z,96.00
2019-02-14T02:51:12.504Z,96.10
2019-02-14T02:53:40.974Z,96.00
2019-02-14T02:56:09.492Z,96.20
2019-02-14T02:58:37.997Z,96.10
2019-02-14T03:01:06.552Z,96.40
2019-02-14T03:03:35.057Z,96.50
2019-02-14T03:08:40.304Z,96.70
2019-02-14T03:11:08.817Z,96.80
2019-02-14T03:13:37.221Z,96.80
2019-02-14T03:16:05.706Z,96.90
2019-02-14T03:18:34.182Z,97.00
2019-02-14T03:21:02.668Z,97.10
2019-02-14T03:23:31.262Z,97.00
2019-02-14T03:25:59.721Z,97.10
2019-02-14T03:28:28.306Z,97.00
2019-02-14T03:30:56.931Z,97.00
2019-02-14T03:33:25.353Z,97.00
2019-02-14T03:35:53.775Z,97.00
2019-02-14T03:38:22.300Z,97.00
2019-02-14T03:40:50.777Z,97.00
2019-02-14T03:43:19.267Z,97.00
2019-02-14T03:45:47.818Z,97.00
2019-02-14T03:48:16.262Z,97.00
2019-02-14T03:50:44.813Z,97.00
2019-02-14T03:53:13.330Z,97.00
2019-02-14T03:55:41.794Z,97.00
2019-02-14T03:58:10.307Z,96.90
2019-02-14T04:07:36.242Z,96.80
2019-02-14T04:10:13.866Z,96.80
2019-02-14T04:12:42.380Z,96.90
2019-02-14T04:15:14.170Z,96.80
2019-02-14T04:17:42.689Z,96.70
2019-02-14T04:20:11.773Z,96.70
2019-02-14T04:22:40.287Z,96.70
2019-02-14T04:25:09.863Z,96.80
2019-02-14T04:27:38.361Z,96.70
2019-02-14T04:30:09.914Z,96.70
2019-02-14T04:32:38.417Z,96.70
2019-02-14T04:35:06.944Z,96.80
2019-02-14T04:37:35.386Z,96.90
2019-02-14T04:40:08.694Z,97.00
2019-02-14T04:42:37.274Z,97.00
2019-02-14T04:45:07.136Z,97.10
2019-02-14T04:47:35.600Z,97.10
2019-02-14T04:50:05.132Z,97.10
2019-02-14T04:52:33.612Z,97.10
2019-02-14T04:55:02.066Z,97.10
2019-02-14T04:57:30.677Z,97.20
2019-02-14T04:59:59.122Z,97.20
2019-02-14T05:02:27.597Z,97.30
2019-02-14T05:04:56.119Z,97.30
2019-02-14T05:07:24.573Z,97.40
2019-02-14T05:09:53.091Z,97.40
2019-02-14T05:12:21.586Z,97.40
2019-02-14T05:14:50.097Z,97.40
2019-02-14T05:17:18.549Z,97.50
2019-02-14T05:19:47.074Z,97.60
2019-02-14T05:22:15.513Z,97.60
2019-02-14T05:24:44.049Z,97.70
2019-02-14T05:27:12.649Z,97.50
2019-02-14T05:29:41.119Z,97.40
2019-02-14T05:32:09.608Z,97.30
2019-02-14T05:34:38.076Z,97.30
2019-02-14T05:37:06.579Z,97.30
2019-02-14T05:39:35.051Z,97.20
2019-02-14T05:42:03.555Z,97.20
2019-02-14T05:44:32.152Z,97.10
2019-02-14T05:47:00.623Z,97.30
2019-02-14T05:49:29.142Z,97.20
2019-02-14T05:51:57.697Z,97.10
2019-02-14T05:54:26.201Z,97.20
2019-02-14T05:56:54.737Z,97.20
2019-02-14T05:59:23.181Z,97.00
2019-02-14T06:01:51.711Z,97.00
2019-02-14T06:04:20.247Z,97.00
2019-02-14T06:06:48.786Z,96.90
2019-02-14T06:09:17.233Z,96.80
2019-02-14T06:11:45.754Z,96.70
2019-02-14T06:14:14.195Z,96.50
2019-02-14T06:16:42.659Z,96.50
2019-02-14T06:19:11.178Z,96.30
2019-02-14T06:21:39.641Z,96.80
2019-02-14T06:24:08.125Z,95.90
2019-02-14T06:26:36.773Z,94.40
2019-02-14T06:29:05.271Z,92.60
2019-02-14T06:31:33.743Z,90.50
2019-02-14T06:34:02.189Z,87.90
2019-02-14T06:36:30.660Z,86.00
2019-02-14T06:38:59.149Z,84.20
2019-02-14T06:41:27.797Z,78.20
2019-02-14T06:43:56.362Z,73.80
2019-02-14T06:46:24.900Z,69.50
2019-02-14T06:48:53.458Z,65.40
2019-02-14T06:51:21.928Z,62.00
2019-02-14T06:53:50.344Z,59.50
2019-02-14T06:56:18.912Z,57.20
2019-02-14T06:58:47.538Z,55.10
2019-02-14T07:01:16.081Z,52.80
2019-02-14T07:03:44.726Z,51.50
2019-02-14T07:06:13.245Z,50.80
2019-02-14T07:08:41.780Z,49.40
2019-02-14T07:11:10.315Z,48.30
2019-02-14T07:13:38.835Z,47.60
2019-02-14T07:16:07.319Z,46.50
2019-02-14T07:18:35.965Z,45.90
2019-02-14T07:21:04.435Z,44.60
2019-02-14T07:23:32.943Z,44.30
2019-02-14T07:26:01.552Z,43.80
2019-02-14T07:28:30.081Z,42.50
2019-02-14T07:30:58.633Z,41.20
2019-02-14T07:33:27.187Z,39.50
2019-02-14T07:35:55.695Z,38.70
2019-02-14T07:38:24.273Z,37.30
2019-02-14T07:40:52.899Z,36.50
2019-02-14T07:43:21.474Z,35.40
2019-02-14T07:45:49.950Z,34.40
2019-02-14T07:48:18.422Z,34.30
2019-02-14T07:50:46.982Z,34.00
2019-02-14T07:53:15.542Z,33.10
2019-02-14T07:55:44.045Z,32.40
2019-02-14T07:58:12.621Z,32.00
2019-02-14T08:00:41.300Z,32.60
2019-02-14T08:03:09.843Z,33.10
2019-02-14T08:05:38.362Z,33.90
2019-02-14T08:08:06.932Z,34.20
2019-02-14T08:10:35.483Z,33.90
2019-02-14T08:13:04.017Z,34.00
2019-02-14T08:15:32.594Z,33.10
2019-02-14T08:18:01.174Z,33.10
2019-02-14T08:20:29.687Z,33.40
2019-02-14T08:22:58.255Z,33.20
2019-02-14T08:25:26.807Z,33.60
2019-02-14T08:27:55.268Z,33.90
2019-02-14T08:30:23.781Z,34.70
2019-02-14T08:32:52.332Z,34.00
2019-02-14T08:35:20.913Z,34.30
2019-02-14T08:37:49.381Z,33.70
2019-02-14T08:40:26.805Z,32.90
2019-02-14T08:42:55.401Z,32.60
2019-02-14T08:45:24.223Z,31.60
2019-02-14T08:47:52.874Z,31.60
2019-02-14T08:50:21.306Z,34.10
2019-02-14T08:52:49.777Z,34.00
2019-02-14T08:55:18.286Z,36.00
2019-02-14T08:57:46.796Z,37.50
2019-02-14T09:00:16.742Z,38.70
2019-02-14T09:02:45.262Z,40.00
2019-02-14T09:05:13.852Z,40.80
2019-02-14T09:07:42.409Z,41.70
2019-02-14T09:10:15.777Z,42.90
2019-02-14T09:12:44.232Z,44.60
2019-02-14T09:15:14.223Z,46.30
2019-02-14T09:17:42.785Z,48.10
2019-02-14T09:20:19.228Z,50.00
2019-02-14T09:22:47.724Z,51.20
2019-02-14T09:25:16.172Z,51.80
2019-02-14T09:27:44.621Z,51.40
2019-02-14T09:30:16.754Z,52.80
2019-02-14T09:32:45.240Z,52.60
2019-02-14T09:35:13.746Z,52.70
2019-02-14T09:37:42.274Z,53.10
2019-02-14T09:40:15.683Z,52.90
2019-02-14T09:42:44.160Z,53.10
2019-02-14T09:45:13.820Z,53.40
2019-02-14T09:47:42.420Z,53.00
2019-02-14T09:50:14.746Z,52.40
2019-02-14T09:52:43.243Z,52.20
2019-02-14T09:55:14.829Z,52.30
2019-02-14T09:57:43.277Z,52.00
2019-02-14T10:00:16.688Z,51.70
2019-02-14T10:02:45.209Z,52.40
2019-02-14T10:05:14.623Z,52.60
2019-02-14T10:07:43.139Z,52.30
2019-02-14T10:10:20.142Z,52.40
2019-02-14T10:12:48.634Z,52.20
2019-02-14T10:15:17.151Z,52.50
2019-02-14T10:17:45.674Z,53.00
2019-02-14T10:20:15.827Z,52.90
2019-02-14T10:22:44.318Z,51.90
2019-02-14T10:25:13.434Z,52.20
2019-02-14T10:27:41.960Z,52.20
2019-02-14T10:30:21.345Z,52.20
2019-02-14T10:32:49.891Z,52.90
2019-02-14T10:35:18.413Z,53.50
2019-02-14T10:37:46.906Z,53.80
2019-02-14T10:40:16.311Z,53.70
2019-02-14T10:42:44.838Z,54.20
2019-02-14T10:45:18.559Z,54.60
2019-02-14T10:47:47.036Z,54.80
2019-02-14T10:50:15.540Z,54.30
2019-02-14T10:52:44.231Z,54.10
2019-02-14T10:55:14.300Z,54.30
2019-02-14T10:57:42.890Z,53.90
2019-02-14T11:00:28.103Z,53.70
2019-02-14T11:02:56.559Z,53.50
2019-02-14T11:05:25.124Z,53.10
2019-02-14T11:07:53.830Z,53.30
2019-02-14T11:10:22.376Z,53.00
2019-02-14T11:12:50.933Z,53.20
2019-02-14T11:15:24.391Z,52.90
2019-02-14T11:17:52.807Z,52.90
2019-02-14T11:20:21.260Z,53.40
2019-02-14T11:22:49.843Z,54.00
2019-02-14T11:25:24.500Z,53.80
2019-02-14T11:27:53.118Z,54.20
2019-02-14T11:30:21.670Z,54.60
2019-02-14T11:32:50.120Z,54.90
2019-02-14T11:35:18.639Z,54.90
2019-02-14T11:37:47.262Z,54.90
2019-02-14T11:40:15.780Z,54.90
2019-02-14T11:42:44.346Z,54.70
2019-02-14T11:45:18.432Z,54.20
2019-02-14T11:47:46.261Z,53.70
2019-02-14T11:50:14.777Z,53.20
2019-02-14T11:52:43.234Z,53.20
2019-02-14T11:55:11.990Z,53.90
2019-02-14T11:57:40.624Z,54.70
2019-02-14T12:00:13.618Z,55.60
2019-02-14T12:02:42.156Z,55.80
2019-02-14T12:05:10.735Z,55.60
2019-02-14T12:07:39.198Z,55.90
2019-02-14T12:10:13.531Z,56.00
2019-02-14T12:12:40.229Z,56.30
2019-02-14T12:15:10.628Z,56.10
2019-02-14T12:17:39.111Z,56.40
2019-02-14T12:20:12.844Z,56.80
2019-02-14T12:22:46.676Z,56.90
2019-02-14T12:25:17.476Z,56.60
2019-02-14T12:27:45.920Z,56.40
2019-02-14T12:30:15.320Z,56.40
2019-02-14T12:32:43.981Z,56.50
2019-02-14T12:35:12.488Z,56.00
2019-02-14T12:37:41.017Z,56.60
2019-02-14T12:40:11.822Z,56.60
2019-02-14T12:42:40.346Z,56.80
2019-02-14T12:45:20.096Z,56.90
2019-02-14T12:47:41.928Z,57.60
2019-02-14T12:50:10.446Z,58.10
2019-02-14T12:52:38.943Z,58.50
2019-02-14T12:55:07.423Z,58.50
2019-02-14T12:57:38.887Z,59.10
2019-02-14T13:00:13.133Z,59.50
2019-02-14T13:02:41.602Z,60.00
2019-02-14T13:05:10.093Z,60.10
2019-02-14T13:07:38.597Z,60.80
2019-02-14T13:10:10.391Z,60.90
2019-02-14T13:12:38.854Z,61.40
2019-02-14T13:15:10.836Z,61.80
2019-02-14T13:17:39.334Z,62.60
2019-02-14T13:20:08.785Z,63.00
2019-02-14T13:22:37.319Z,63.40
2019-02-14T13:25:08.854Z,64.20
2019-02-14T13:27:37.417Z,64.50
2019-02-14T13:30:15.476Z,65.00
2019-02-14T13:32:44.152Z,65.70
2019-02-14T13:35:12.744Z,66.20
2019-02-14T13:37:41.394Z,66.90
2019-02-14T13:40:09.906Z,67.30
2019-02-14T13:42:38.433Z,67.60
2019-02-14T13:45:10.534Z,68.00
2019-02-14T13:47:39.122Z,68.00
2019-02-14T13:50:10.119Z,68.50
2019-02-14T13:52:38.654Z,68.50
2019-02-14T13:55:09.282Z,69.40
2019-02-14T13:57:37.885Z,69.40
2019-02-14T14:00:12.822Z,69.90
2019-02-14T14:02:41.330Z,70.00
2019-02-14T14:05:09.848Z,70.00
2019-02-14T14:07:40.321Z,70.50
2019-02-14T14:10:09.830Z,71.10
2019-02-14T14:12:38.395Z,71.50
2019-02-14T14:15:09.094Z,71.90
2019-02-14T14:17:37.638Z,72.80
2019-02-14T14:20:07.668Z,73.40
2019-02-14T14:22:36.243Z,74.00
2019-02-14T14:25:06.443Z,74.70
2019-02-14T14:27:34.887Z,75.30
2019-02-14T14:30:05.049Z,75.70
2019-02-14T14:32:33.724Z,76.10
2019-02-14T14:35:02.162Z,76.50
2019-02-14T14:37:30.658Z,77.00
2019-02-14T14:39:59.260Z,77.50
2019-02-14T14:42:38.722Z,78.30
2019-02-14T14:45:09.407Z,78.90
2019-02-14T14:47:37.946Z,79.30
2019-02-14T14:50:07.952Z,79.50
2019-02-14T14:52:36.400Z,79.80
2019-02-14T14:55:05.808Z,80.00
2019-02-14T14:57:34.375Z,80.20
2019-02-14T15:00:03.191Z,80.40
2019-02-14T15:02:31.634Z,80.50
2019-02-14T15:05:00.308Z,80.40
2019-02-14T15:07:28.953Z,80.70
2019-02-14T15:09:57.958Z,80.70
2019-02-14T15:12:26.628Z,80.80
2019-02-14T15:14:55.181Z,80.80
2019-02-14T15:17:23.656Z,80.80
2019-02-14T15:19:52.146Z,81.40
2019-02-14T15:22:20.658Z,81.60
2019-02-14T15:24:49.137Z,81.90
2019-02-14T15:27:17.706Z,82.30
2019-02-14T15:29:46.162Z,82.50
2019-02-14T15:32:14.684Z,83.10
2019-02-14T15:34:43.182Z,83.30
2019-02-14T15:37:12.768Z,83.80
2019-02-14T15:39:41.842Z,84.10
2019-02-14T15:42:10.290Z,84.30
2019-02-14T15:44:38.846Z,84.20
2019-02-14T15:47:07.403Z,84.50
2019-02-14T15:49:35.867Z,85.00
2019-02-14T15:52:05.961Z,85.00
2019-02-14T15:54:35.261Z,85.30
2019-02-14T15:57:04.004Z,85.10
2019-02-14T15:59:32.538Z,85.30
2019-02-14T16:02:01.092Z,85.10
2019-02-14T16:04:31.347Z,85.70
2019-02-14T16:06:59.968Z,86.00
2019-02-14T16:09:28.421Z,86.30
2019-02-14T16:11:57.907Z,86.20
2019-02-14T16:14:26.631Z,86.70
2019-02-14T16:16:55.147Z,86.90
2019-02-14T16:19:23.715Z,87.10
2019-02-14T16:21:53.764Z,87.10
2019-02-14T16:24:22.363Z,87.30
2019-02-14T16:26:50.932Z,87.30
2019-02-14T16:29:19.391Z,87.50
2019-02-14T16:31:48.003Z,87.50
2019-02-14T16:34:16.609Z,87.60
2019-02-14T16:36:45.104Z,87.40
2019-02-14T16:39:13.567Z,87.50
2019-02-14T16:41:42.145Z,87.70
2019-02-14T16:44:10.720Z,87.80
2019-02-14T16:46:39.377Z,88.30
2019-02-14T16:49:08.056Z,88.50
2019-02-14T16:51:36.498Z,88.40
2019-02-14T16:54:05.369Z,88.80
2019-02-14T16:56:33.955Z,88.70
2019-02-14T16:59:02.578Z,89.40
2019-02-14T17:01:31.271Z,89.70
2019-02-14T17:03:59.815Z,90.00
2019-02-14T17:06:28.305Z,90.10
2019-02-14T17:08:56.901Z,90.30
2019-02-14T17:11:25.463Z,90.50
2019-02-14T17:13:53.953Z,90.50
2019-02-14T17:16:22.501Z,90.70
2019-02-14T17:18:51.148Z,90.80
2019-02-14T17:21:19.600Z,90.90
2019-02-14T17:23:48.105Z,91.10
2019-02-14T17:26:16.647Z,91.10
2019-02-14T17:28:45.178Z,91.30
2019-02-14T17:31:13.683Z,91.50
2019-02-14T17:33:42.265Z,91.60
2019-02-14T17:36:10.760Z,91.90
2019-02-14T17:38:39.265Z,92.10
2019-02-14T17:41:07.797Z,92.10
2019-02-14T17:43:36.297Z,92.20
2019-02-14T17:46:04.778Z,92.30
2019-02-14T17:48:33.331Z,92.40
2019-02-14T17:51:01.867Z,92.40
2019-02-14T17:53:30.379Z,92.40
2019-02-14T17:55:58.861Z,92.50
2019-02-14T17:58:27.315Z,92.70
2019-02-14T18:00:55.915Z,92.80
2019-02-14T18:03:24.492Z,92.80
2019-02-14T18:05:53.164Z,92.50
2019-02-14T18:08:21.594Z,92.30
2019-02-14T18:10:54.914Z,91.80
2019-02-14T18:13:20.324Z,91.60
2019-02-14T18:15:48.763Z,91.10
2019-02-14T18:18:17.267Z,91.00
2019-02-14T18:20:45.839Z,90.50
2019-02-14T18:23:14.415Z,90.60
2019-02-14T18:25:43.055Z,90.60
2019-02-14T18:28:11.612Z,90.50
2019-02-14T18:30:40.184Z,90.60
2019-02-14T18:33:08.803Z,90.80
2019-02-14T18:35:37.335Z,90.90
2019-02-14T18:38:05.848Z,91.10
2019-02-14T18:40:34.500Z,91.00
2019-02-14T18:43:02.916Z,91.60
2019-02-14T18:45:31.443Z,91.30
2019-02-14T18:48:00.139Z,91.50
2019-02-14T18:50:28.573Z,91.40
2019-02-14T18:52:57.199Z,91.40
2019-02-14T18:55:25.764Z,91.50
2019-02-14T18:57:54.322Z,91.60
2019-02-14T19:00:22.831Z,91.80
2019-02-14T19:02:51.501Z,91.90
2019-02-14T19:05:20.015Z,92.00
2019-02-14T19:07:48.493Z,91.80
2019-02-14T19:10:17.720Z,92.10
2019-02-14T19:12:46.325Z,92.10
2019-02-14T19:15:14.873Z,92.00
2019-02-14T19:17:43.493Z,92.00
2019-02-14T19:20:12.914Z,92.20
2019-02-14T19:22:42.038Z,92.10
2019-02-14T19:25:11.659Z,92.30
2019-02-14T19:27:40.234Z,92.60
2019-02-14T19:30:10.616Z,92.80
2019-02-14T19:32:39.128Z,93.40
2019-02-14T19:35:10.616Z,93.50
2019-02-14T19:37:39.193Z,93.80
2019-02-14T19:40:08.761Z,93.90
2019-02-14T19:42:37.223Z,94.10
2019-02-14T19:45:08.478Z,94.10
2019-02-14T19:47:36.973Z,94.30
2019-02-14T19:50:10.334Z,94.40
2019-02-14T19:52:38.904Z,94.70
2019-02-14T19:55:09.326Z,94.60
2019-02-14T19:57:37.851Z,94.90
2019-02-14T20:00:09.524Z,95.10
2019-02-14T20:02:38.054Z,95.50
2019-02-14T20:05:08.093Z,95.00
2019-02-14T20:07:36.684Z,95.20
2019-02-14T20:10:14.114Z,95.10
2019-02-14T20:12:42.768Z,95.30
2019-02-14T20:15:13.594Z,95.10
2019-02-14T20:17:45.192Z,95.00
2019-02-14T20:20:13.638Z,95.20
2019-02-14T20:22:42.159Z,95.30
2019-02-14T20:25:20.161Z,95.10
2019-02-14T20:27:50.079Z,95.10
2019-02-14T20:30:19.034Z,95.10
2019-02-14T20:32:47.689Z,95.00
2019-02-14T20:35:16.404Z,95.00
2019-02-14T20:37:45.017Z,95.00
2019-02-14T20:40:14.408Z,94.90
2019-02-14T20:42:43.113Z,94.80
2019-02-14T20:45:16.367Z,95.00
2019-02-14T20:47:47.850Z,95.00
2019-02-14T20:50:16.357Z,94.80
2019-02-14T20:52:46.669Z,94.80
2019-02-14T20:55:18.142Z,95.10
2019-02-14T20:57:46.673Z,95.10
2019-02-14T21:00:16.936Z,95.00
2019-02-14T21:02:45.417Z,95.00
2019-02-14T21:05:14.012Z,94.80
2019-02-14T21:07:42.533Z,94.60
2019-02-14T21:10:11.017Z,94.80
2019-02-14T21:12:39.461Z,94.90
2019-02-14T21:15:09.146Z,94.70
2019-02-14T21:17:37.652Z,94.90
2019-02-14T21:20:09.390Z,94.80
2019-02-14T21:22:37.923Z,94.80
2019-02-14T21:25:08.199Z,94.70
2019-02-14T21:27:36.629Z,94.80
2019-02-14T21:30:08.736Z,94.70
2019-02-14T21:32:37.447Z,94.70
2019-02-14T21:35:06.701Z,94.60
2019-02-14T21:37:35.114Z,94.50
2019-02-14T21:40:05.053Z,94.50
2019-02-14T21:42:33.615Z,94.30
2019-02-14T21:45:02.097Z,94.40
2019-02-14T21:47:30.717Z,94.50
2019-02-14T21:49:59.183Z,94.20
2019-02-14T21:52:27.633Z,94.40
2019-02-14T21:54:56.131Z,94.20
2019-02-14T21:57:24.689Z,94.30
2019-02-14T21:59:53.174Z,94.50
2019-02-14T22:02:21.816Z,94.50
2019-02-14T22:04:50.290Z,94.50
2019-02-14T22:07:18.729Z,94.60
2019-02-14T22:09:47.381Z,94.60
2019-02-14T22:12:15.967Z,94.40
2019-02-14T22:14:44.413Z,94.80
2019-02-14T22:17:13.130Z,94.70
2019-02-14T22:19:43.327Z,94.80
2019-02-14T22:22:11.728Z,94.70
2019-02-14T22:24:40.215Z,94.60
2019-02-14T22:27:08.734Z,94.70
2019-02-14T22:29:37.167Z,94.50
2019-02-14T22:32:05.811Z,94.60
2019-02-14T22:34:34.567Z,94.70
2019-02-14T22:37:03.042Z,94.90
2019-02-14T22:39:31.609Z,94.80
2019-02-14T22:42:00.168Z,94.80
2019-02-14T22:44:28.739Z,94.80
2019-02-14T22:46:57.304Z,94.70
2019-02-14T22:49:25.922Z,94.60
2019-02-14T22:51:54.438Z,94.70
2019-02-14T22:54:23.051Z,94.70
2019-02-14T22:56:51.661Z,94.70
2019-02-14T22:59:20.142Z,94.70
2019-02-14T23:01:48.722Z,94.60
2019-02-14T23:04:17.183Z,94.70
2019-02-14T23:06:45.705Z,94.50
2019-02-14T23:09:14.217Z,95.00
2019-02-14T23:11:42.878Z,94.50
2019-02-14T23:14:11.314Z,94.50
2019-02-14T23:16:39.895Z,94.40
2019-02-14T23:19:08.456Z,94.80
2019-02-14T23:21:37.541Z,94.50
2019-02-14T23:24:06.203Z,94.40
2019-02-14T23:26:34.756Z,94.30
2019-02-14T23:29:03.261Z,94.10
2019-02-14T23:31:31.801Z,94.10
2019-02-14T23:34:00.293Z,94.10
2019-02-14T23:36:28.886Z,94.00
2019-02-14T23:38:57.534Z,94.10
2019-02-14T23:41:26.164Z,93.80
2019-02-14T23:43:54.618Z,94.00
2019-02-14T23:46:23.063Z,93.90
2019-02-14T23:48:51.659Z,94.00
2019-02-14T23:51:22.451Z,94.00
2019-02-14T23:53:50.307Z,94.00
2019-02-14T23:56:18.791Z,93.90
2019-02-14T23:58:47.323Z,93.80
